»·PEaware :: DAL250 KLNK-KMSP

DAL250 :: KLNK-KMSP

FLIGHT INFORMATION

Flight Status: Arrived
Operator:
Delta Air Lines
More flights by this operator :: More flights under this callsign
Pilot: Andrew J. (13363)
Aircraft: BOEING 737-800
(B738)
More flights by this aircraft type
Origin: KLNK Lincoln Mun
United States
Destination: KMSP Minneapolis-St Paul Intl
United States
More flights between these airports :: More routes between these airports
Route: ROKKK NITZR3
File this flight plan on PilotEdge
Remarks:
Altitude:
(Current/Filed)
37,000ft
Speed:
(Current/Filed)
460kts
Departed: 29-Jul-17 09:25 AM
Arrived: 29-Jul-17 10:26 AM
Distance/Time
Traveled:
288nm/1:01
Distance/Time
To Go:
Arrived

Flight Plot

Page will automatically refresh every two minutes.

Flight plan parsing failed; only flown route is shown


Map Options




Map Legend


Flown Route
Filed Route
Departure Airport
Arrival Airport
Navaid (VOR, NDB)
Fix

Horizontal Profiles

Position Reports

Time Latitude Longitude Heading Altitude Ground
Speed
29-Jul-17 09:23 40.856483 -96.759479 2 1192ft 10kts
29-Jul-17 09:24 40.858155 -96.759131 8 1193ft 6kts
29-Jul-17 09:25 40.860738 -96.758873 359 1197ft 12kts
29-Jul-17 09:26 40.862830 -96.759582 271 1198ft 0kts
29-Jul-17 09:27 40.862854 -96.761483 266 1195ft 9kts
29-Jul-17 09:28 40.844226 -96.761815 179 1458ft 162kts
29-Jul-17 09:29 40.824328 -96.721607 63 4297ft 189kts
29-Jul-17 09:30 40.859942 -96.669872 48 5998ft 270kts
29-Jul-17 09:31 40.911055 -96.596256 46 10092ft 280kts
29-Jul-17 09:32 40.967087 -96.515347 44 13115ft 319kts
29-Jul-17 09:33 41.026320 -96.430078 43 16410ft 335kts
29-Jul-17 09:34 41.087502 -96.341825 42 19216ft 352kts
29-Jul-17 09:35 41.152087 -96.248465 41 21808ft 372kts
29-Jul-17 09:36 41.222574 -96.146463 40 24444ft 386kts
29-Jul-17 09:37 41.292218 -96.044816 39 27354ft 379kts
29-Jul-17 09:38 41.364145 -95.940480 38 29123ft 396kts
29-Jul-17 09:39 41.439062 -95.831561 38 30818ft 408kts
29-Jul-17 09:40 41.514537 -95.721090 38 32720ft 409kts
29-Jul-17 09:41 41.590048 -95.610194 37 34376ft 408kts
29-Jul-17 09:42 41.664994 -95.500133 37 35931ft 405kts
29-Jul-17 09:43 41.739699 -95.390090 37 37204ft 402kts
29-Jul-17 09:44 41.805236 -95.293248 37 37244ft 405kts
29-Jul-17 09:45 41.879728 -95.182912 37 37223ft 403kts
29-Jul-17 09:46 41.954098 -95.072281 37 37222ft 404kts
29-Jul-17 09:47 42.027960 -94.961635 37 37216ft 400kts
29-Jul-17 09:48 42.100362 -94.852346 36 37215ft 394kts
29-Jul-17 09:49 42.170678 -94.746124 36 37225ft 389kts
29-Jul-17 09:50 42.242261 -94.638260 36 37226ft 390kts
29-Jul-17 09:51 42.313651 -94.530295 36 37235ft 390kts
29-Jul-17 09:52 42.384742 -94.422384 36 37245ft 390kts
29-Jul-17 09:53 42.455240 -94.314994 36 37234ft 391kts
29-Jul-17 09:54 42.524760 -94.208299 36 37227ft 380kts
29-Jul-17 09:55 42.592176 -94.096872 59 37203ft 416kts
29-Jul-17 09:56 42.608939 -93.933887 75 37280ft 456kts
29-Jul-17 09:57 42.646321 -93.784073 22 37239ft 390kts
29-Jul-17 09:58 42.744147 -93.747035 4 37272ft 377kts
29-Jul-17 09:59 42.845602 -93.710693 4 36972ft 399kts
29-Jul-17 10:00 42.954523 -93.671890 5 35780ft 410kts
29-Jul-17 10:01 43.063895 -93.632491 6 34197ft 411kts
29-Jul-17 10:02 43.165909 -93.595138 7 32600ft 412kts
29-Jul-17 10:03 43.275546 -93.555138 3 30963ft 413kts
29-Jul-17 10:04 43.387123 -93.542803 358 29141ft 398kts
29-Jul-17 10:05 43.495965 -93.533029 359 27201ft 395kts
29-Jul-17 10:06 43.603060 -93.523593 359 25205ft 385kts
29-Jul-17 10:07 43.707252 -93.514415 0 23216ft 377kts
29-Jul-17 10:08 43.809444 -93.505384 1 21216ft 369kts
29-Jul-17 10:09 43.909290 -93.496514 1 19192ft 354kts
29-Jul-17 10:10 44.003469 -93.487120 2 17128ft 345kts
29-Jul-17 10:11 44.097342 -93.476401 3 15120ft 332kts
29-Jul-17 10:12 44.184877 -93.463902 16 13173ft 323kts
29-Jul-17 10:13 44.268311 -93.420462 20 11862ft 327kts
29-Jul-17 10:14 44.346337 -93.377244 21 10711ft 314kts
29-Jul-17 10:15 44.421058 -93.326913 26 9983ft 285kts
29-Jul-17 10:16 44.484468 -93.263964 53 9463ft 287kts
29-Jul-17 10:17 44.529750 -93.173571 55 8514ft 279kts
29-Jul-17 10:18 44.571349 -93.087339 55 7380ft 259kts
29-Jul-17 10:19 44.611148 -93.010115 37 6961ft 232kts
29-Jul-17 10:20 44.644096 -92.942942 106 7057ft 223kts
29-Jul-17 10:21 44.621007 -92.863272 77 6972ft 223kts
29-Jul-17 10:22 44.674939 -92.850028 340 7047ft 242kts
29-Jul-17 10:23 44.735089 -92.893578 321 6064ft 244kts
29-Jul-17 10:24 44.772827 -92.970538 301 4794ft 230kts
29-Jul-17 10:25 44.804873 -93.043223 300 3511ft 209kts
29-Jul-17 10:26 44.831775 -93.104496 300 2444ft 171kts
29-Jul-17 10:27 44.854531 -93.156941 299 1594ft 149kts
29-Jul-17 10:28 44.875301 -93.205259 300 817ft 139kts
29-Jul-17 10:29 44.882447 -93.219967 31 828ft 3kts
29-Jul-17 10:30 44.881934 -93.217641 118 825ft 14kts
29-Jul-17 10:31 44.882522 -93.213618 55 825ft 5kts
29-Jul-17 10:32 44.852319 -93.151728 300 1654ft 150kts
29-Jul-17 10:33 44.872939 -93.199820 300 865ft 142kts
29-Jul-17 10:34 44.841111 -93.126204 298 1973ft 166kts
29-Jul-17 10:35 44.861973 -93.174190 300 1294ft 148kts
29-Jul-17 10:36 44.878569 -93.212874 302 821ft 98kts
29-Jul-17 10:37 44.882453 -93.219962 32 828ft 2kts
29-Jul-17 10:38 44.864106 -93.179136 299 1198ft 147kts
29-Jul-17 10:39 44.879998 -93.216053 306 824ft 56kts
29-Jul-17 10:40 44.882728 -93.213297 47 824ft 0kts
29-Jul-17 10:41 44.882728 -93.213297 47 824ft 0kts
29-Jul-17 10:42 44.882728 -93.213297 47 824ft 0kts
29-Jul-17 10:43 44.882728 -93.213297 47 824ft 0kts

Navigation Log

Ident Type
Flight plan parsing failed, navigation log unavailable